Terminal Aerodrome Forecast
Issued by NWS

Home | Current Version | Previous Version | Text Only | Print | Product List | Glossary On
Versions: 1 2 3 4 5 6 7 8 9 10 11 12 13 14 15 16 17 18
000
FTUS42 KTBW 241700
TAFPGD
TAF
KPGD 241732Z 2418/2518 18006KT P6SM FEW030
     FM242000 25011KT P6SM FEW030
     FM250300 VRB03KT P6SM SKC
     FM250900 VRB02KT 6SM BR FEW010
     FM251300 23005KT P6SM FEW030=

USA.gov is the U.S. government's official web portal to all federal, state and local government web resources and services.